Time;durP1;ratioP1;P1;durP2;ratioP2;P2;SDS_P1;SDS_P2;PMS_P1;PMS_P2;Temp;Humidity;BMP_temperature;BMP_pressure;BME280_temperature;BME280_humidity;BME280_pressure;Samples;Min_cycle;Max_cycle;Signal;HPM_P1;HPM_P2
2021/09/06 00:00:59;;;;;;;8.80;7.10;;;;;;;;;;5113846;28;20042;-83
2021/09/06 00:03:25;;;;;;;10.25;7.88;;;;;;;;;;5113808;28;20026;-84
2021/09/06 00:05:51;;;;;;;9.10;7.30;;;;;;;;;;5113882;28;20150;-83
2021/09/06 00:08:16;;;;;;;8.20;7.15;;;;;;;;;;5113798;28;20404;-84
2021/09/06 00:10:46;;;;;;;11.85;5.53;;;;;;;;;;5113904;28;20444;-83
2021/09/06 00:13:17;;;;;;;8.73;6.63;;;;;;;;;;5113684;28;20024;-83
2021/09/06 00:15:43;;;;;;;8.88;5.60;;;;;;;;;;5113642;28;20063;-84
2021/09/06 00:18:09;;;;;;;10.30;7.07;;;;;;;;;;5113704;28;20071;-83
2021/09/06 00:20:37;;;;;;;7.97;6.55;;;;;;;;;;5113945;28;20069;-84
2021/09/06 00:23:04;;;;;;;7.55;6.72;;;;;;;;;;5115718;28;20107;-83
2021/09/06 00:25:30;;;;;;;10.10;5.05;;;;;;;;;;5104025;28;20028;-83
2021/09/06 00:27:55;;;;;;;9.90;6.65;;;;;;;;;;5096891;28;20031;-84
2021/09/06 00:30:21;;;;;;;9.93;6.45;;;;;;;;;;5095761;28;20353;-84
2021/09/06 00:32:47;;;;;;;8.70;7.00;;;;;;;;;;5097151;28;20024;-87
2021/09/06 00:35:12;;;;;;;8.63;4.93;;;;;;;;;;5101869;28;20077;-84
2021/09/06 00:37:38;;;;;;;9.63;7.53;;;;;;;;;;5116721;28;20016;-83
2021/09/06 00:40:04;;;;;;;8.20;6.47;;;;;;;;;;5122595;28;20008;-83
2021/09/06 00:42:30;;;;;;;8.60;6.55;;;;;;;;;;5103886;28;20115;-84
2021/09/06 00:44:55;;;;;;;13.38;7.07;;;;;;;;;;5099323;28;20055;-84
2021/09/06 00:47:21;;;;;;;7.32;5.68;;;;;;;;;;5097701;28;20084;-84
2021/09/06 00:49:47;;;;;;;6.78;6.07;;;;;;;;;;5097359;28;20024;-83
2021/09/06 00:52:12;;;;;;;10.18;6.85;;;;;;;;;;5096764;28;20471;-83
2021/09/06 00:54:39;;;;;;;7.47;5.50;;;;;;;;;;5096778;28;20020;-83
2021/09/06 00:57:05;;;;;;;7.75;5.88;;;;;;;;;;5096507;28;20031;-83
2021/09/06 00:59:30;;;;;;;8.23;5.50;;;;;;;;;;5096407;28;20035;-83
2021/09/06 01:01:56;;;;;;;10.77;6.60;;;;;;;;;;5096404;28;20024;-86
2021/09/06 01:04:21;;;;;;;7.85;5.38;;;;;;;;;;5096646;28;20110;-83
2021/09/06 01:06:47;;;;;;;7.63;5.82;;;;;;;;;;5096599;28;20420;-83
2021/09/06 01:09:13;;;;;;;8.38;5.82;;;;;;;;;;5096194;28;20115;-83
2021/09/06 01:11:38;;;;;;;7.28;5.55;;;;;;;;;;5096104;28;20039;-83
2021/09/06 01:14:04;;;;;;;6.97;2.95;;;;;;;;;;5094812;28;20413;-83
2021/09/06 01:16:30;;;;;;;6.20;5.57;;;;;;;;;;5094681;28;20036;-83
2021/09/06 01:18:56;;;;;;;6.32;4.45;;;;;;;;;;5095817;28;20094;-83
2021/09/06 01:21:21;;;;;;;7.47;5.78;;;;;;;;;;5096883;28;20455;-83
2021/09/06 01:23:47;;;;;;;9.82;6.63;;;;;;;;;;5095861;28;20051;-82
2021/09/06 01:26:12;;;;;;;6.95;5.40;;;;;;;;;;5095882;28;20028;-84
2021/09/06 01:28:38;;;;;;;7.85;5.28;;;;;;;;;;5095714;28;20088;-83
2021/09/06 01:31:04;;;;;;;9.60;4.90;;;;;;;;;;5094650;28;20440;-83
2021/09/06 01:33:30;;;;;;;7.45;5.43;;;;;;;;;;5095571;28;20357;-83
2021/09/06 01:35:55;;;;;;;9.13;6.50;;;;;;;;;;5095566;28;20069;-84
2021/09/06 01:38:21;;;;;;;7.88;5.32;;;;;;;;;;5095616;28;20101;-83
2021/09/06 01:40:47;;;;;;;8.43;5.32;;;;;;;;;;5095583;28;20120;-83
2021/09/06 01:43:13;;;;;;;9.35;6.20;;;;;;;;;;5094443;28;20031;-83
2021/09/06 01:45:38;;;;;;;11.10;4.55;;;;;;;;;;5095740;28;20020;-84
2021/09/06 01:48:04;;;;;;;9.95;4.70;;;;;;;;;;5095331;28;20481;-84
2021/09/06 01:50:30;;;;;;;6.43;4.78;;;;;;;;;;5094179;28;20035;-84
2021/09/06 01:52:56;;;;;;;6.78;5.97;;;;;;;;;;5095354;28;20024;-84
2021/09/06 01:55:22;;;;;;;8.95;5.95;;;;;;;;;;5095578;28;20536;-84
2021/09/06 01:57:48;;;;;;;6.13;5.47;;;;;;;;;;5095516;28;20059;-84
2021/09/06 02:00:14;;;;;;;9.38;6.75;;;;;;;;;;5095309;28;20059;-84
2021/09/06 02:02:40;;;;;;;6.53;5.05;;;;;;;;;;5095259;28;20031;-85
2021/09/06 02:05:06;;;;;;;10.07;6.05;;;;;;;;;;5095590;28;20032;-84
2021/09/06 02:07:31;;;;;;;10.63;6.88;;;;;;;;;;5095035;28;20031;-83
2021/09/06 02:09:57;;;;;;;7.78;7.00;;;;;;;;;;5095096;28;20028;-84
2021/09/06 02:12:23;;;;;;;8.43;6.03;;;;;;;;;;5094855;28;20380;-83
2021/09/06 02:14:48;;;;;;;8.65;5.93;;;;;;;;;;5094926;28;20081;-83
2021/09/06 02:17:14;;;;;;;8.98;5.57;;;;;;;;;;5094693;28;20040;-83
2021/09/06 02:19:40;;;;;;;7.57;6.35;;;;;;;;;;5094769;28;20036;-84
2021/09/06 02:22:05;;;;;;;7.32;6.13;;;;;;;;;;5095061;28;20024;-84
2021/09/06 02:24:31;;;;;;;8.10;4.80;;;;;;;;;;5095344;28;20024;-83
2021/09/06 02:26:57;;;;;;;7.53;5.43;;;;;;;;;;5095328;28;20486;-84
2021/09/06 02:29:22;;;;;;;6.75;5.32;;;;;;;;;;5095442;28;20035;-83
2021/09/06 02:31:48;;;;;;;7.25;5.70;;;;;;;;;;5095079;28;20031;-84
2021/09/06 02:34:14;;;;;;;9.23;5.97;;;;;;;;;;5094632;28;20031;-84
2021/09/06 02:36:39;;;;;;;7.05;3.45;;;;;;;;;;5094965;28;20414;-85
2021/09/06 02:39:05;;;;;;;11.15;7.05;;;;;;;;;;5094413;28;20028;-84
2021/09/06 02:41:31;;;;;;;7.63;5.72;;;;;;;;;;5094450;28;20047;-88
2021/09/06 02:43:57;;;;;;;9.77;6.13;;;;;;;;;;5094335;28;20024;-84
2021/09/06 02:46:22;;;;;;;11.13;7.05;;;;;;;;;;5093521;28;20033;-83
2021/09/06 02:48:48;;;;;;;7.63;5.20;;;;;;;;;;5094239;28;20031;-83
2021/09/06 02:51:14;;;;;;;9.30;5.65;;;;;;;;;;5094317;28;20028;-84
2021/09/06 02:53:40;;;;;;;5.70;4.70;;;;;;;;;;5094455;28;20530;-83
2021/09/06 02:56:05;;;;;;;8.27;5.30;;;;;;;;;;5094151;28;20383;-83
2021/09/06 02:58:31;;;;;;;7.63;5.55;;;;;;;;;;5094213;28;20035;-83
2021/09/06 03:00:56;;;;;;;9.00;6.07;;;;;;;;;;5094107;28;20035;-84
2021/09/06 03:03:22;;;;;;;6.22;5.40;;;;;;;;;;5093942;28;20024;-84
2021/09/06 03:05:48;;;;;;;7.32;6.18;;;;;;;;;;5094108;28;20024;-83
2021/09/06 03:08:14;;;;;;;6.45;5.50;;;;;;;;;;5092642;28;20030;-84
2021/09/06 03:10:39;;;;;;;7.70;6.20;;;;;;;;;;5094116;28;20468;-83
2021/09/06 03:13:05;;;;;;;8.88;6.05;;;;;;;;;;5092682;28;20027;-82
2021/09/06 03:15:31;;;;;;;10.52;5.82;;;;;;;;;;5092551;28;20031;-83
2021/09/06 03:17:56;;;;;;;12.02;8.00;;;;;;;;;;5092409;28;20139;-84
2021/09/06 03:20:22;;;;;;;8.63;6.50;;;;;;;;;;5094160;28;20032;-84
2021/09/06 03:22:48;;;;;;;13.40;8.13;;;;;;;;;;5093787;28;20107;-83
2021/09/06 03:25:13;;;;;;;9.70;6.03;;;;;;;;;;5092509;28;20039;-84
2021/09/06 03:27:39;;;;;;;11.15;7.13;;;;;;;;;;5093761;28;20104;-83
2021/09/06 03:30:07;;;;;;;9.95;6.57;;;;;;;;;;5093962;28;20380;-83
2021/09/06 03:32:33;;;;;;;10.07;5.93;;;;;;;;;;5093974;28;20024;-84
2021/09/06 03:34:58;;;;;;;11.30;6.93;;;;;;;;;;5093898;28;20031;-83
2021/09/06 03:37:24;;;;;;;9.75;6.05;;;;;;;;;;5093948;28;20389;-84
2021/09/06 03:39:50;;;;;;;7.68;6.53;;;;;;;;;;5093584;28;20028;-84
2021/09/06 03:42:15;;;;;;;7.53;6.22;;;;;;;;;;5093607;28;20022;-83
2021/09/06 03:44:41;;;;;;;7.05;5.07;;;;;;;;;;5092212;28;20027;-84
2021/09/06 03:47:06;;;;;;;12.32;8.07;;;;;;;;;;5093698;28;20043;-83
2021/09/06 03:49:32;;;;;;;8.20;3.97;;;;;;;;;;5093467;28;20406;-83
2021/09/06 03:51:58;;;;;;;10.40;7.20;;;;;;;;;;5093561;28;20103;-84
2021/09/06 03:54:24;;;;;;;7.63;6.93;;;;;;;;;;5093776;28;20028;-84
2021/09/06 03:56:49;;;;;;;8.45;5.78;;;;;;;;;;5093709;28;20091;-84
2021/09/06 03:59:15;;;;;;;8.43;5.85;;;;;;;;;;5097418;28;20062;-84
2021/09/06 04:01:41;;;;;;;8.27;6.78;;;;;;;;;;5097535;28;20475;-84
2021/09/06 04:04:06;;;;;;;7.97;6.28;;;;;;;;;;5096131;28;20048;-84
2021/09/06 04:06:32;;;;;;;6.93;4.30;;;;;;;;;;5096292;28;20472;-83
2021/09/06 04:08:58;;;;;;;8.00;4.88;;;;;;;;;;5097212;28;20063;-84
2021/09/06 04:11:24;;;;;;;7.60;6.68;;;;;;;;;;5097452;28;20057;-83
2021/09/06 04:13:49;;;;;;;9.85;6.20;;;;;;;;;;5097368;28;20020;-84
2021/09/06 04:16:15;;;;;;;9.45;5.45;;;;;;;;;;5097302;28;20024;-84
2021/09/06 04:18:41;;;;;;;8.15;6.40;;;;;;;;;;5096884;28;20036;-83
2021/09/06 04:21:06;;;;;;;9.85;7.18;;;;;;;;;;5097064;28;20024;-84
2021/09/06 04:23:32;;;;;;;5.87;5.17;;;;;;;;;;5097175;28;20356;-84
2021/09/06 04:26:00;;;;;;;11.52;3.83;;;;;;;;;;5095726;28;20028;-83
2021/09/06 04:28:27;;;;;;;10.65;6.65;;;;;;;;;;5095663;28;20028;-84
2021/09/06 04:30:53;;;;;;;7.80;5.15;;;;;;;;;;5096887;28;20028;-84
2021/09/06 04:33:18;;;;;;;6.53;5.90;;;;;;;;;;5095775;28;20057;-83
2021/09/06 04:35:44;;;;;;;6.95;6.05;;;;;;;;;;5096762;28;20024;-84
2021/09/06 04:38:09;;;;;;;10.18;5.65;;;;;;;;;;5096870;28;20403;-85
2021/09/06 04:40:35;;;;;;;7.53;5.57;;;;;;;;;;5096914;28;20481;-84
2021/09/06 04:43:01;;;;;;;8.85;5.05;;;;;;;;;;5096814;28;20107;-84
2021/09/06 04:45:26;;;;;;;8.15;6.03;;;;;;;;;;5096772;28;20032;-84
2021/09/06 04:47:52;;;;;;;8.95;7.13;;;;;;;;;;5096772;28;20012;-84
2021/09/06 04:50:18;;;;;;;6.80;5.28;;;;;;;;;;5096661;28;20028;-84
2021/09/06 04:52:43;;;;;;;9.90;6.00;;;;;;;;;;5096666;28;20470;-84
2021/09/06 04:55:09;;;;;;;10.35;6.88;;;;;;;;;;5096580;28;20024;-85
2021/09/06 04:57:35;;;;;;;7.60;4.90;;;;;;;;;;5096890;28;20039;-89
2021/09/06 05:00:01;;;;;;;8.23;5.95;;;;;;;;;;5096402;28;20035;-84
2021/09/06 05:02:26;;;;;;;8.43;5.93;;;;;;;;;;5096334;28;20024;-84
2021/09/06 05:04:52;;;;;;;9.20;6.15;;;;;;;;;;5111729;28;20016;-83
2021/09/06 05:07:17;;;;;;;6.82;5.85;;;;;;;;;;5121621;28;20020;-84
2021/09/06 05:09:43;;;;;;;12.93;7.18;;;;;;;;;;5114856;28;20047;-83
2021/09/06 05:12:09;;;;;;;6.45;3.38;;;;;;;;;;5120119;28;20409;-84
2021/09/06 05:14:34;;;;;;;8.43;6.18;;;;;;;;;;5096757;28;20035;-84
2021/09/06 05:17:00;;;;;;;10.05;6.72;;;;;;;;;;5098348;28;20119;-84
2021/09/06 05:19:26;;;;;;;11.27;5.75;;;;;;;;;;5097529;28;20113;-84
2021/09/06 05:21:51;;;;;;;9.18;6.20;;;;;;;;;;5096037;28;20054;-84
2021/09/06 05:24:18;;;;;;;9.02;6.40;;;;;;;;;;5096181;28;20031;-84
2021/09/06 05:26:43;;;;;;;10.07;6.45;;;;;;;;;;5096278;28;20065;-83
2021/09/06 05:29:09;;;;;;;8.02;6.22;;;;;;;;;;5096228;28;20032;-84
2021/09/06 05:31:34;;;;;;;7.60;4.78;;;;;;;;;;5094584;28;20122;-84
2021/09/06 05:34:00;;;;;;;7.13;6.18;;;;;;;;;;5096127;28;20024;-84
2021/09/06 05:36:26;;;;;;;8.25;4.35;;;;;;;;;;5096008;28;20028;-82
2021/09/06 05:38:51;;;;;;;8.30;6.75;;;;;;;;;;5095669;28;20031;-83
2021/09/06 05:41:20;;;;;;;7.10;3.58;;;;;;;;;;5096065;28;20420;-84
2021/09/06 05:43:46;;;;;;;7.15;4.95;;;;;;;;;;5094267;28;20470;-84
2021/09/06 05:46:12;;;;;;;6.15;3.45;;;;;;;;;;5095426;28;20028;-83
2021/09/06 05:48:37;;;;;;;5.88;4.00;;;;;;;;;;5095380;28;20391;-83
2021/09/06 05:51:03;;;;;;;7.07;5.40;;;;;;;;;;5095145;28;20032;-84
2021/09/06 05:53:29;;;;;;;7.68;5.10;;;;;;;;;;5095383;28;20099;-84
2021/09/06 05:55:54;;;;;;;9.60;6.10;;;;;;;;;;5095235;28;20028;-84
2021/09/06 05:58:20;;;;;;;7.72;6.50;;;;;;;;;;5093995;28;20039;-83
2021/09/06 06:00:46;;;;;;;6.93;4.45;;;;;;;;;;5095141;28;20032;-84
2021/09/06 06:03:11;;;;;;;6.55;4.95;;;;;;;;;;5093763;28;20028;-84
2021/09/06 06:05:37;;;;;;;8.48;4.65;;;;;;;;;;5095435;28;20066;-85
2021/09/06 06:08:03;;;;;;;8.13;4.90;;;;;;;;;;5094902;28;20095;-85
2021/09/06 06:10:28;;;;;;;6.45;4.90;;;;;;;;;;5095024;28;20024;-84
2021/09/06 06:12:54;;;;;;;6.97;5.32;;;;;;;;;;5095016;28;20028;-84
2021/09/06 06:15:19;;;;;;;10.13;6.95;;;;;;;;;;5095155;28;20035;-84
2021/09/06 06:17:45;;;;;;;7.13;5.55;;;;;;;;;;5094648;28;20085;-84
2021/09/06 06:20:11;;;;;;;7.43;3.80;;;;;;;;;;5094861;28;20384;-84
2021/09/06 06:22:37;;;;;;;9.35;3.72;;;;;;;;;;5095129;28;20353;-84
2021/09/06 06:25:03;;;;;;;9.80;5.28;;;;;;;;;;5095115;28;20031;-85
2021/09/06 06:27:29;;;;;;;7.78;5.70;;;;;;;;;;5094806;28;20024;-84
2021/09/06 06:29:55;;;;;;;9.43;4.57;;;;;;;;;;5094794;28;20051;-84
2021/09/06 06:32:20;;;;;;;7.57;3.60;;;;;;;;;;5094507;28;20379;-84
2021/09/06 06:34:46;;;;;;;8.48;3.35;;;;;;;;;;5093295;28;20384;-84
2021/09/06 06:37:12;;;;;;;8.15;5.43;;;;;;;;;;5094503;28;20028;-84
2021/09/06 06:39:38;;;;;;;5.72;4.22;;;;;;;;;;5094445;28;20048;-84
2021/09/06 06:42:03;;;;;;;14.00;3.92;;;;;;;;;;5094341;28;20102;-83
2021/09/06 06:44:29;;;;;;;8.07;5.15;;;;;;;;;;5094665;28;20077;-84
2021/09/06 06:46:55;;;;;;;6.70;5.72;;;;;;;;;;5094372;28;20031;-84
2021/09/06 06:49:20;;;;;;;6.60;4.80;;;;;;;;;;5094299;28;20492;-83
2021/09/06 06:51:46;;;;;;;6.47;5.80;;;;;;;;;;5093102;28;20111;-84
2021/09/06 06:54:12;;;;;;;6.80;5.20;;;;;;;;;;5094512;28;20107;-84
2021/09/06 06:56:38;;;;;;;6.00;4.78;;;;;;;;;;5094702;28;20141;-84
2021/09/06 06:59:03;;;;;;;6.65;4.18;;;;;;;;;;5094705;28;20420;-84
2021/09/06 07:01:29;;;;;;;8.65;4.97;;;;;;;;;;5094868;28;20036;-84
2021/09/06 07:03:55;;;;;;;6.78;3.75;;;;;;;;;;5094716;28;20031;-83
2021/09/06 07:06:21;;;;;;;5.78;3.15;;;;;;;;;;5094064;28;20028;-85
2021/09/06 07:08:46;;;;;;;9.18;3.55;;;;;;;;;;5094207;28;20090;-85
2021/09/06 07:11:12;;;;;;;5.88;2.97;;;;;;;;;;5094278;28;20027;-84
2021/09/06 07:13:38;;;;;;;5.55;3.13;;;;;;;;;;5092602;28;20031;-84
2021/09/06 07:16:04;;;;;;;6.22;3.65;;;;;;;;;;5093954;28;20028;-84
2021/09/06 07:18:29;;;;;;;6.18;3.85;;;;;;;;;;5093704;28;20051;-84
2021/09/06 07:20:55;;;;;;;7.95;3.33;;;;;;;;;;5093957;28;20028;-84
2021/09/06 07:23:21;;;;;;;5.18;3.63;;;;;;;;;;5093736;28;20023;-84
2021/09/06 07:25:46;;;;;;;6.07;4.40;;;;;;;;;;5093748;28;20059;-83
2021/09/06 07:28:12;;;;;;;6.72;3.15;;;;;;;;;;5093671;28;20498;-84
2021/09/06 07:30:38;;;;;;;5.82;3.58;;;;;;;;;;5093853;28;20020;-84
2021/09/06 07:33:06;;;;;;;7.13;3.80;;;;;;;;;;5093341;28;20020;-84
2021/09/06 07:35:32;;;;;;;8.35;5.47;;;;;;;;;;5093788;28;20028;-84
2021/09/06 07:37:58;;;;;;;3.70;2.13;;;;;;;;;;5092578;28;20073;-84
2021/09/06 07:40:24;;;;;;;4.28;2.63;;;;;;;;;;5093757;28;20107;-84
2021/09/06 07:42:50;;;;;;;6.13;3.17;;;;;;;;;;5093567;28;20477;-83
2021/09/06 07:45:15;;;;;;;3.92;2.17;;;;;;;;;;5093622;28;20376;-84
2021/09/06 07:47:41;;;;;;;5.82;3.80;;;;;;;;;;5093564;28;20111;-84
2021/09/06 07:50:10;;;;;;;6.18;2.85;;;;;;;;;;5092362;28;20059;-84
2021/09/06 07:52:37;;;;;;;6.65;3.33;;;;;;;;;;5093701;28;20115;-83
2021/09/06 07:55:04;;;;;;;5.88;3.78;;;;;;;;;;5093561;28;20024;-84
2021/09/06 07:57:30;;;;;;;4.47;2.88;;;;;;;;;;5093376;28;20024;-83
2021/09/06 07:59:56;;;;;;;8.38;3.75;;;;;;;;;;5092118;28;20055;-84
2021/09/06 08:02:21;;;;;;;8.27;5.53;;;;;;;;;;5093341;28;20020;-84
2021/09/06 08:04:47;;;;;;;7.72;3.45;;;;;;;;;;5093281;28;20498;-84
2021/09/06 08:07:13;;;;;;;9.32;3.55;;;;;;;;;;5093171;28;20020;-84
2021/09/06 08:09:38;;;;;;;4.55;2.97;;;;;;;;;;5093104;28;20032;-83
2021/09/06 08:12:05;;;;;;;7.63;3.65;;;;;;;;;;5093591;28;20043;-84
2021/09/06 08:14:30;;;;;;;6.78;3.72;;;;;;;;;;5093317;28;20027;-83
2021/09/06 08:16:56;;;;;;;7.47;2.83;;;;;;;;;;5093107;28;20127;-84
2021/09/06 08:19:21;;;;;;;5.70;2.13;;;;;;;;;;5093384;28;20399;-83
2021/09/06 08:21:47;;;;;;;6.97;3.83;;;;;;;;;;5093439;28;20017;-81
2021/09/06 08:24:14;;;;;;;9.05;3.15;;;;;;;;;;5093182;28;20027;-83
2021/09/06 08:26:41;;;;;;;8.52;4.40;;;;;;;;;;5093124;28;20031;-83
2021/09/06 08:29:06;;;;;;;6.03;3.72;;;;;;;;;;5093464;28;20031;-84
2021/09/06 08:31:32;;;;;;;6.88;3.47;;;;;;;;;;5093184;28;20016;-84
2021/09/06 08:33:58;;;;;;;5.65;1.83;;;;;;;;;;5093409;28;20380;-83
2021/09/06 08:36:25;;;;;;;9.52;4.85;;;;;;;;;;5091811;28;20024;-83
2021/09/06 08:38:51;;;;;;;4.13;2.88;;;;;;;;;;5093110;28;20031;-84
2021/09/06 08:41:17;;;;;;;5.70;3.60;;;;;;;;;;5093110;28;20020;-84
2021/09/06 08:43:43;;;;;;;9.75;2.88;;;;;;;;;;5091719;28;20128;-84
2021/09/06 08:46:08;;;;;;;4.60;2.15;;;;;;;;;;5096705;28;20034;-85
2021/09/06 08:48:34;;;;;;;5.22;2.17;;;;;;;;;;5096695;28;20105;-85
2021/09/06 08:51:00;;;;;;;4.97;1.77;;;;;;;;;;5095248;28;20028;-84
2021/09/06 08:53:25;;;;;;;3.38;1.65;;;;;;;;;;5096581;28;20070;-83
2021/09/06 08:55:53;;;;;;;24.85;12.35;;;;;;;;;;5095373;28;20406;-84
2021/09/06 08:58:19;;;;;;;7.25;1.63;;;;;;;;;;5095093;28;20400;-84
2021/09/06 09:00:47;;;;;;;10.55;3.75;;;;;;;;;;5095123;28;20028;-84
2021/09/06 09:03:13;;;;;;;6.80;3.42;;;;;;;;;;5096290;28;20020;-84
2021/09/06 09:05:39;;;;;;;8.55;2.50;;;;;;;;;;5096398;28;20024;-85
2021/09/06 09:08:05;;;;;;;10.70;4.35;;;;;;;;;;5096281;28;20032;-85
2021/09/06 09:10:33;;;;;;;11.60;4.88;;;;;;;;;;5096020;28;20024;-84
2021/09/06 09:13:07;;;;;;;4.70;2.03;;;;;;;;;;5096258;28;20028;-85
2021/09/06 09:15:34;;;;;;;9.05;3.10;;;;;;;;;;5096040;28;20043;-84
2021/09/06 09:18:00;;;;;;;8.40;3.63;;;;;;;;;;5096089;28;20044;-84
2021/09/06 09:20:40;;;;;;;5.28;3.05;;;;;;;;;;5096042;28;20548;-84
2021/09/06 09:23:07;;;;;;;5.25;3.78;;;;;;;;;;5094588;28;20082;-85
2021/09/06 09:25:33;;;;;;;28.65;19.27;;;;;;;;;;5095850;28;20077;-84
2021/09/06 09:27:59;;;;;;;6.80;2.83;;;;;;;;;;5094622;28;20484;-84
2021/09/06 09:30:29;;;;;;;5.18;1.90;;;;;;;;;;5094412;28;20399;-85
2021/09/06 09:33:06;;;;;;;5.55;3.08;;;;;;;;;;5094722;28;20441;-84
2021/09/06 09:35:32;;;;;;;5.88;2.58;;;;;;;;;;5096171;28;20024;-86
2021/09/06 09:38:06;;;;;;;7.15;3.75;;;;;;;;;;5095980;28;20027;-84
2021/09/06 09:40:39;;;;;;;5.82;2.70;;;;;;;;;;5101809;28;20012;-84
2021/09/06 09:43:06;;;;;;;6.68;3.45;;;;;;;;;;5107035;28;20028;-83
2021/09/06 09:45:32;;;;;;;5.40;2.80;;;;;;;;;;5114945;28;20028;-84
2021/09/06 09:47:59;;;;;;;3.15;0.90;;;;;;;;;;5102741;28;20426;-85
2021/09/06 09:50:27;;;;;;;8.75;3.13;;;;;;;;;;5096837;28;20028;-85
2021/09/06 09:52:55;;;;;;;6.60;3.03;;;;;;;;;;5096241;28;20089;-85
2021/09/06 09:55:22;;;;;;;4.50;3.20;;;;;;;;;;5095205;28;20035;-85
2021/09/06 09:57:48;;;;;;;5.90;3.67;;;;;;;;;;5095384;28;20472;-84
2021/09/06 10:00:15;;;;;;;5.47;2.80;;;;;;;;;;5095203;28;20108;-84
2021/09/06 10:02:51;;;;;;;6.75;3.65;;;;;;;;;;5095245;28;20032;-84
2021/09/06 10:05:21;;;;;;;5.88;2.47;;;;;;;;;;5095359;28;20020;-84
2021/09/06 10:07:47;;;;;;;;;;;;;;;;;;5095666;28;20084;-84
2021/09/06 10:10:22;;;;;;;7.25;3.53;;;;;;;;;;5094780;28;19919;-85
2021/09/06 10:13:01;;;;;;;6.25;3.33;;;;;;;;;;5095003;28;20027;-84
2021/09/06 10:15:27;;;;;;;3.42;1.42;;;;;;;;;;5094885;28;20399;-85
2021/09/06 10:17:53;;;;;;;9.25;2.40;;;;;;;;;;5094673;28;20044;-85
2021/09/06 10:20:24;;;;;;;9.90;2.72;;;;;;;;;;5093482;28;20047;-84
2021/09/06 10:23:07;;;;;;;9.18;3.05;;;;;;;;;;5093476;28;20024;-84
2021/09/06 10:25:35;;;;;;;9.10;3.58;;;;;;;;;;5094592;28;20028;-84
2021/09/06 10:28:06;;;;;;;3.53;2.15;;;;;;;;;;5093377;28;20032;-85
2021/09/06 10:30:47;;;;;;;11.10;3.28;;;;;;;;;;5094525;28;20028;-85
2021/09/06 10:33:24;;;;;;;7.85;2.03;;;;;;;;;;5095110;28;20406;-84
2021/09/06 10:35:50;;;;;;;3.83;1.98;;;;;;;;;;5093295;28;20376;-84
2021/09/06 10:38:16;;;;;;;5.70;1.92;;;;;;;;;;5094659;28;20376;-85
2021/09/06 10:40:43;;;;;;;5.38;3.90;;;;;;;;;;5095061;28;20024;-84
2021/09/06 10:43:19;;;;;;;6.03;3.13;;;;;;;;;;5094391;28;20143;-84
2021/09/06 10:45:49;;;;;;;4.43;3.17;;;;;;;;;;5094683;28;20024;-84
2021/09/06 10:48:19;;;;;;;9.00;4.80;;;;;;;;;;5094823;28;20027;-85
2021/09/06 10:50:47;;;;;;;8.90;4.07;;;;;;;;;;5094423;28;20032;-85
2021/09/06 10:53:17;;;;;;;9.02;2.10;;;;;;;;;;5094439;28;20024;-84
2021/09/06 10:55:45;;;;;;;;;;;;;;;;;;5093603;28;20052;-84
2021/09/06 10:58:11;;;;;;;6.47;2.80;;;;;;;;;;5094519;28;19973;-85
2021/09/06 11:00:36;;;;;;;8.02;2.15;;;;;;;;;;5094404;28;20028;-85
2021/09/06 11:03:04;;;;;;;5.38;1.58;;;;;;;;;;5094583;28;20058;-84
2021/09/06 11:05:30;;;;;;;10.73;2.55;;;;;;;;;;5094060;28;20020;-85
2021/09/06 11:08:07;;;;;;;6.70;1.65;;;;;;;;;;5093671;28;20102;-85
2021/09/06 11:10:33;;;;;;;19.33;3.60;;;;;;;;;;5094157;28;20027;-83
2021/09/06 11:13:00;;;;;;;6.35;3.03;;;;;;;;;;5094429;28;20031;-83
2021/09/06 11:15:27;;;;;;;9.30;3.63;;;;;;;;;;5093961;28;20099;-83
2021/09/06 11:18:04;;;;;;;4.40;2.03;;;;;;;;;;5093782;28;20039;-83
2021/09/06 11:20:33;;;;;;;4.15;1.80;;;;;;;;;;5092539;28;20384;-83
2021/09/06 11:23:07;;;;;;;7.10;2.88;;;;;;;;;;5092498;28;20118;-84
2021/09/06 11:25:35;;;;;;;6.18;2.05;;;;;;;;;;5093693;28;20035;-83
2021/09/06 11:28:06;;;;;;;8.05;1.77;;;;;;;;;;5093717;28;20036;-83
2021/09/06 11:30:34;;;;;;;5.13;1.33;;;;;;;;;;5093679;28;20039;-83
2021/09/06 11:33:02;;;;;;;4.93;1.63;;;;;;;;;;5092540;28;20107;-84
2021/09/06 11:35:28;;;;;;;5.05;3.00;;;;;;;;;;5093885;28;20044;-84
2021/09/06 11:37:55;;;;;;;6.03;1.92;;;;;;;;;;5092539;28;20030;-83
2021/09/06 11:40:21;;;;;;;7.15;2.35;;;;;;;;;;5093947;28;20032;-83
2021/09/06 11:42:47;;;;;;;7.20;2.47;;;;;;;;;;5093884;28;20376;-83
2021/09/06 11:45:18;;;;;;;10.15;4.05;;;;;;;;;;5093593;28;20020;-84
2021/09/06 11:47:44;;;;;;;8.68;4.25;;;;;;;;;;5092239;28;20024;-84
2021/09/06 11:50:11;;;;;;;9.77;2.38;;;;;;;;;;5092093;28;20049;-84
2021/09/06 11:52:39;;;;;;;6.95;2.83;;;;;;;;;;5092234;28;20025;-84
2021/09/06 11:55:12;;;;;;;8.88;1.65;;;;;;;;;;5092202;28;20020;-84
2021/09/06 11:57:38;;;;;;;3.97;1.75;;;;;;;;;;5092154;28;20434;-83
2021/09/06 12:00:05;;;;;;;5.15;2.20;;;;;;;;;;5093526;28;20016;-84
2021/09/06 12:02:30;;;;;;;6.75;3.20;;;;;;;;;;5093361;28;20016;-84
2021/09/06 12:05:08;;;;;;;4.65;3.22;;;;;;;;;;5093411;28;20012;-84
2021/09/06 12:07:48;;;;;;;6.68;3.22;;;;;;;;;;5093592;28;20020;-84
2021/09/06 12:10:27;;;;;;;6.32;3.88;;;;;;;;;;5093485;28;20078;-84
2021/09/06 12:13:23;;;;;;;12.18;2.33;;;;;;;;;;5093226;28;20081;-85
2021/09/06 12:16:00;;;;;;;4.57;2.20;;;;;;;;;;5092331;28;20039;-83
2021/09/06 12:18:36;;;;;;;5.93;2.20;;;;;;;;;;5094234;28;20044;-84
2021/09/06 12:21:05;;;;;;;;;;;;;;;;;;5097803;28;20028;-84
2021/09/06 12:23:39;;;;;;;4.63;1.65;;;;;;;;;;5095684;28;19977;-83
2021/09/06 12:26:07;;;;;;;8.57;2.53;;;;;;;;;;5095753;28;20468;-84
2021/09/06 12:28:33;;;;;;;8.15;1.10;;;;;;;;;;5097046;28;20421;-84
2021/09/06 12:31:04;;;;;;;6.10;3.10;;;;;;;;;;5097138;28;20055;-85
2021/09/06 12:33:30;;;;;;;4.50;1.58;;;;;;;;;;5097793;28;20417;-89
2021/09/06 12:35:59;;;;;;;8.02;2.30;;;;;;;;;;5097027;28;20107;-85
2021/09/06 12:38:25;;;;;;;7.88;2.50;;;;;;;;;;5096840;28;20020;-86
2021/09/06 12:40:50;;;;;;;13.18;2.53;;;;;;;;;;5096890;28;20529;-85
2021/09/06 12:43:16;;;;;;;7.72;2.72;;;;;;;;;;5097021;28;20513;-84
2021/09/06 12:45:42;;;;;;;14.32;2.00;;;;;;;;;;5095431;28;20450;-84
2021/09/06 12:48:08;;;;;;;6.15;2.28;;;;;;;;;;5096642;28;20103;-83
2021/09/06 12:50:34;;;;;;;5.57;2.72;;;;;;;;;;5096604;28;20028;-83
2021/09/06 12:53:00;;;;;;;7.07;1.90;;;;;;;;;;5095279;28;20027;-85
2021/09/06 12:55:26;;;;;;;5.38;3.05;;;;;;;;;;5096723;28;20596;-84
2021/09/06 12:57:52;;;;;;;9.77;2.10;;;;;;;;;;5096646;28;20124;-84
2021/09/06 13:00:18;;;;;;;8.88;1.88;;;;;;;;;;5096638;28;20020;-84
2021/09/06 13:02:44;;;;;;;5.47;2.28;;;;;;;;;;5097238;28;20031;-84
2021/09/06 13:05:10;;;;;;;6.43;4.30;;;;;;;;;;5096362;28;20025;-86
2021/09/06 13:07:36;;;;;;;8.55;2.30;;;;;;;;;;5096365;28;20028;-85
2021/09/06 13:10:02;;;;;;;21.83;4.55;;;;;;;;;;5096540;28;20081;-81
2021/09/06 13:12:28;;;;;;;6.63;3.15;;;;;;;;;;5096136;28;20113;-83
2021/09/06 13:14:54;;;;;;;6.88;2.75;;;;;;;;;;5096075;28;20059;-84
2021/09/06 13:17:19;;;;;;;7.20;3.03;;;;;;;;;;5102616;28;20059;-85
2021/09/06 13:19:45;;;;;;;9.13;5.85;;;;;;;;;;5114751;27;20020;-87
2021/09/06 13:22:11;;;;;;;7.38;3.63;;;;;;;;;;5113731;28;20031;-87
2021/09/06 13:24:37;;;;;;;10.63;4.78;;;;;;;;;;5115215;28;20032;-86
2021/09/06 13:27:03;;;;;;;8.30;4.97;;;;;;;;;;5115694;28;20106;-89
2021/09/06 13:29:29;;;;;;;4.28;1.35;;;;;;;;;;5116072;28;20534;-86
2021/09/06 13:31:55;;;;;;;4.90;2.75;;;;;;;;;;5116437;28;20038;-85
2021/09/06 13:34:20;;;;;;;15.13;11.40;;;;;;;;;;5116440;28;20066;-86
2021/09/06 13:36:46;;;;;;;6.20;5.25;;;;;;;;;;5116110;27;20463;-86
2021/09/06 13:39:12;;;;;;;6.28;2.55;;;;;;;;;;5116300;28;20028;-85
2021/09/06 13:41:37;;;;;;;23.70;4.80;;;;;;;;;;5116355;28;20019;-86
2021/09/06 13:44:03;;;;;;;7.78;4.30;;;;;;;;;;5115004;28;20020;-88
2021/09/06 13:46:29;;;;;;;9.27;3.28;;;;;;;;;;5114331;28;20023;-86
2021/09/06 13:48:55;;;;;;;8.38;2.45;;;;;;;;;;5115070;28;20039;-86
2021/09/06 13:51:21;;;;;;;7.53;3.47;;;;;;;;;;5115738;28;20028;-87
2021/09/06 13:53:47;;;;;;;6.53;3.08;;;;;;;;;;5114699;28;20020;-86
2021/09/06 13:56:13;;;;;;;9.38;7.68;;;;;;;;;;5116361;28;20098;-86
2021/09/06 13:58:39;;;;;;;7.10;2.35;;;;;;;;;;5116560;28;20055;-85
2021/09/06 14:01:05;;;;;;;6.10;3.03;;;;;;;;;;5115183;28;20073;-87
2021/09/06 14:03:31;;;;;;;5.90;3.40;;;;;;;;;;5116056;28;20023;-86
2021/09/06 14:05:58;;;;;;;9.57;5.60;;;;;;;;;;5117008;28;20098;-85
2021/09/06 14:08:24;;;;;;;7.45;4.55;;;;;;;;;;5116516;28;20027;-84
2021/09/06 14:10:50;;;;;;;8.32;5.45;;;;;;;;;;5114608;28;20028;-86
2021/09/06 14:13:16;;;;;;;8.15;3.65;;;;;;;;;;5116897;28;20528;-85
2021/09/06 14:15:43;;;;;;;6.65;3.08;;;;;;;;;;5115854;28;20035;-84
2021/09/06 14:18:09;;;;;;;8.20;6.68;;;;;;;;;;5116721;28;20096;-87
2021/09/06 14:20:39;;;;;;;5.30;0.90;;;;;;;;;;5096962;28;20480;-84
2021/09/06 14:23:05;;;;;;;10.73;4.65;;;;;;;;;;5124105;28;20016;-87
2021/09/06 14:25:30;;;;;;;5.80;2.38;;;;;;;;;;5133406;28;20688;-85
2021/09/06 14:27:56;;;;;;;4.78;3.10;;;;;;;;;;5137075;28;20019;-86
2021/09/06 14:30:22;;;;;;;9.98;3.67;;;;;;;;;;5118418;28;20027;-84
2021/09/06 14:32:47;;;;;;;5.97;2.97;;;;;;;;;;5116558;28;20035;-87
2021/09/06 14:35:13;;;;;;;6.68;2.92;;;;;;;;;;5117053;28;20026;-88
2021/09/06 14:37:39;;;;;;;14.90;3.78;;;;;;;;;;5116521;28;20022;-88
2021/09/06 14:40:06;;;;;;;8.13;5.13;;;;;;;;;;5113318;28;20031;-89